Time;durP1;ratioP1;P1;durP2;ratioP2;P2;SDS_P1;SDS_P2;PMS_P1;PMS_P2;Temp;Humidity;BMP_temperature;BMP_pressure;BME280_temperature;BME280_humidity;BME280_pressure;Samples;Min_cycle;Max_cycle;Signal;HPM_P1;HPM_P2
2022/06/18 00:01:43;;;;;;;;;;;22.10;99.90;;;;;;4997812;28;19972;-66
2022/06/18 00:04:12;;;;;;;;;;;22.20;99.90;;;;;;4997126;28;19996;-65
2022/06/18 00:06:43;;;;;;;;;;;22.10;99.90;;;;;;4996146;28;20290;-66
2022/06/18 00:09:12;;;;;;;;;;;22.00;99.90;;;;;;4996916;28;19961;-66
2022/06/18 00:14:23;;;;;;;;;;;22.00;99.90;;;;;;4996977;28;19968;-66
2022/06/18 00:16:50;;;;;;;;;;;22.00;99.90;;;;;;4996449;28;19929;-66
2022/06/18 00:19:17;;;;;;;;;;;22.10;99.90;;;;;;4996805;28;19926;-66
2022/06/18 00:21:44;;;;;;;;;;;22.10;99.90;;;;;;5027298;28;19929;-64
2022/06/18 00:24:15;;;;;;;;;;;22.10;99.90;;;;;;5003816;28;20340;-65
2022/06/18 00:26:42;;;;;;;;;;;22.20;99.90;;;;;;4995285;28;19925;-65
2022/06/18 00:29:11;;;;;;;;;;;22.30;99.90;;;;;;4996976;28;19926;-65
2022/06/18 00:31:38;;;;;;;;;;;22.30;99.90;;;;;;5031075;28;19925;-66
2022/06/18 00:34:05;;;;;;;;;;;22.20;99.90;;;;;;4996656;28;20404;-65
2022/06/18 00:36:32;;;;;;;;;;;22.20;99.90;;;;;;5003396;28;19925;-67
2022/06/18 00:38:58;;;;;;;;;;;22.20;99.90;;;;;;5025774;28;19972;-67
2022/06/18 00:41:27;;;;;;;;;;;22.20;99.90;;;;;;5004154;28;19933;-66
2022/06/18 00:43:55;;;;;;;;;;;22.20;99.90;;;;;;4995811;28;19972;-67
2022/06/18 00:46:25;;;;;;;;;;;22.20;99.90;;;;;;5003959;28;19925;-66
2022/06/18 00:48:57;;;;;;;;;;;22.20;99.90;;;;;;4995604;28;19925;-66
2022/06/18 00:51:26;;;;;;;;;;;22.30;99.90;;;;;;4996227;28;19933;-66
2022/06/18 00:53:54;;;;;;;;;;;22.30;99.90;;;;;;5027056;28;19926;-65
2022/06/18 00:56:24;;;;;;;;;;;22.20;99.90;;;;;;5004856;28;19925;-66
2022/06/18 00:58:56;;;;;;;;;;;22.30;99.90;;;;;;5027820;28;19975;-67
2022/06/18 01:01:26;;;;;;;;;;;22.20;99.90;;;;;;5003152;28;19956;-67
2022/06/18 01:03:54;;;;;;;;;;;22.20;99.90;;;;;;5001353;28;19932;-66
2022/06/18 01:06:23;;;;;;;;;;;22.10;99.90;;;;;;5024110;28;20420;-65
2022/06/18 01:08:53;;;;;;;;;;;22.10;99.90;;;;;;4995426;28;19926;-66
2022/06/18 01:11:21;;;;;;;;;;;22.00;99.90;;;;;;4996318;28;20187;-66
2022/06/18 01:13:49;;;;;;;;;;;22.10;99.90;;;;;;5002210;28;20044;-66
2022/06/18 01:16:18;;;;;;;;;;;22.10;99.90;;;;;;5027239;28;20393;-66
2022/06/18 01:18:46;;;;;;;;;;;22.00;99.90;;;;;;4996284;28;20344;-66
2022/06/18 01:21:17;;;;;;;;;;;22.00;99.90;;;;;;4995671;28;20411;-66
2022/06/18 01:23:47;;;;;;;;;;;22.00;99.90;;;;;;4995033;28;20027;-66
2022/06/18 01:26:16;;;;;;;;;;;22.00;99.90;;;;;;4995474;28;20017;-66
2022/06/18 01:28:45;;;;;;;;;;;21.90;99.90;;;;;;4994990;28;19925;-66
2022/06/18 01:31:12;;;;;;;;;;;22.00;99.90;;;;;;4995615;28;19951;-66
2022/06/18 01:33:39;;;;;;;;;;;22.00;99.90;;;;;;4992595;28;19929;-66
2022/06/18 01:36:09;;;;;;;;;;;22.00;99.90;;;;;;4993260;28;20025;-66
2022/06/18 01:38:39;;;;;;;;;;;22.00;99.90;;;;;;5002131;28;19926;-65
2022/06/18 01:43:53;;;;;;;;;;;22.00;99.90;;;;;;4988760;28;19976;-66
2022/06/18 01:46:20;;;;;;;;;;;22.00;99.90;;;;;;4995530;28;19957;-66
2022/06/18 01:48:48;;;;;;;;;;;22.00;99.90;;;;;;4994380;28;19926;-66
2022/06/18 01:51:18;;;;;;;;;;;22.00;99.90;;;;;;4993745;28;19925;-66
2022/06/18 01:53:50;;;;;;;;;;;22.00;99.90;;;;;;4994537;28;19925;-66
2022/06/18 01:56:19;;;;;;;;;;;22.00;99.90;;;;;;4995275;28;20024;-66
2022/06/18 01:58:48;;;;;;;;;;;22.00;99.90;;;;;;4994965;28;19932;-67
2022/06/18 02:01:38;;;;;;;;;;;22.00;99.90;;;;;;5027463;28;19925;-66
2022/06/18 02:04:05;;;;;;;;;;;22.10;99.90;;;;;;5000189;28;19925;-66
2022/06/18 02:06:34;;;;;;;;;;;22.00;99.90;;;;;;4994690;28;20304;-67
2022/06/18 02:09:02;;;;;;;;;;;22.10;99.90;;;;;;4994551;28;19937;-66
2022/06/18 02:11:28;;;;;;;;;;;22.00;99.90;;;;;;4994759;28;19933;-66
2022/06/18 02:13:59;;;;;;;;;;;22.10;99.90;;;;;;4994455;28;19989;-66
2022/06/18 02:16:31;;;;;;;;;;;22.20;99.90;;;;;;4995059;28;19932;-66
2022/06/18 02:19:01;;;;;;;;;;;22.30;99.90;;;;;;5022348;28;19983;-67
2022/06/18 02:21:27;;;;;;;;;;;22.20;99.90;;;;;;4998768;28;19932;-66
2022/06/18 02:23:55;;;;;;;;;;;22.10;99.90;;;;;;5005850;28;19925;-65
2022/06/18 02:26:23;;;;;;;;;;;22.10;99.90;;;;;;5007280;28;20490;-67
2022/06/18 02:28:52;;;;;;;;;;;22.10;99.90;;;;;;4994469;28;20308;-67
2022/06/18 02:31:21;;;;;;;;;;;22.00;99.90;;;;;;5019082;28;19926;-66
2022/06/18 02:33:49;;;;;;;;;;;22.00;99.90;;;;;;4990597;28;20281;-66
2022/06/18 02:36:19;;;;;;;;;;;22.00;99.90;;;;;;5001249;28;19925;-66
2022/06/18 02:38:52;;;;;;;;;;;22.00;99.90;;;;;;5026322;28;19932;-67
2022/06/18 02:41:19;;;;;;;;;;;21.90;99.90;;;;;;4997367;28;20001;-66
2022/06/18 02:43:47;;;;;;;;;;;21.90;99.90;;;;;;4992504;28;20415;-66
2022/06/18 02:46:14;;;;;;;;;;;22.00;99.90;;;;;;4994921;28;20387;-65
2022/06/18 02:48:41;;;;;;;;;;;21.90;99.90;;;;;;5008102;28;19940;-66
2022/06/18 02:51:10;;;;;;;;;;;21.90;99.90;;;;;;4997128;28;19988;-66
2022/06/18 02:53:38;;;;;;;;;;;21.80;99.90;;;;;;4995747;28;19945;-66
2022/06/18 02:56:06;;;;;;;;;;;21.70;99.90;;;;;;5005942;28;19925;-66
2022/06/18 02:58:34;;;;;;;;;;;21.70;99.90;;;;;;5007948;28;19925;-66
2022/06/18 03:01:03;;;;;;;;;;;21.60;99.90;;;;;;4997794;28;20021;-66
2022/06/18 03:03:31;;;;;;;;;;;21.70;99.90;;;;;;5017742;28;19930;-66
2022/06/18 03:06:00;;;;;;;;;;;21.60;99.90;;;;;;4997747;28;20040;-66
2022/06/18 03:08:28;;;;;;;;;;;21.50;99.90;;;;;;4999164;28;19932;-66
2022/06/18 03:13:43;;;;;;;;;;;21.50;99.90;;;;;;4993853;28;19930;-66
2022/06/18 03:16:12;;;;;;;;;;;21.40;99.90;;;;;;4998539;28;19925;-66
2022/06/18 03:18:40;;;;;;;;;;;21.40;99.90;;;;;;4997165;28;19931;-66
2022/06/18 03:21:15;;;;;;;;;;;21.50;99.90;;;;;;5021133;28;19925;-66
2022/06/18 03:23:42;;;;;;;;;;;21.50;99.90;;;;;;5020785;28;19929;-66
2022/06/18 03:26:12;;;;;;;;;;;21.50;99.90;;;;;;5022919;28;19925;-66
2022/06/18 03:28:40;;;;;;;;;;;21.60;99.90;;;;;;4997669;28;19932;-67
2022/06/18 03:31:07;;;;;;;;;;;21.60;99.90;;;;;;4997909;28;19960;-65
2022/06/18 03:33:38;;;;;;;;;;;21.70;99.90;;;;;;4990499;28;20245;-66
2022/06/18 03:36:06;;;;;;;;;;;21.70;99.90;;;;;;5025397;28;19933;-66
2022/06/18 03:38:34;;;;;;;;;;;21.70;99.90;;;;;;5006955;28;19926;-65
2022/06/18 03:41:01;;;;;;;;;;;21.70;99.90;;;;;;5008929;28;19929;-65
2022/06/18 03:43:30;;;;;;;;;;;21.70;99.90;;;;;;4992021;28;20397;-66
2022/06/18 03:45:59;;;;;;;;;;;21.70;99.90;;;;;;4990157;28;19932;-66
2022/06/18 03:48:29;;;;;;;;;;;21.70;99.90;;;;;;4997834;28;19936;-67
2022/06/18 03:50:55;;;;;;;;;;;21.70;99.90;;;;;;5021810;28;19926;-66
2022/06/18 03:53:23;;;;;;;;;;;21.70;99.90;;;;;;4999184;28;20397;-67
2022/06/18 03:55:50;;;;;;;;;;;21.70;99.90;;;;;;5002533;28;20312;-66
2022/06/18 03:58:17;;;;;;;;;;;21.70;99.90;;;;;;5009743;28;19949;-68
2022/06/18 04:00:46;;;;;;;;;;;21.80;99.90;;;;;;5027122;28;19933;-67
2022/06/18 04:03:13;;;;;;;;;;;21.80;99.90;;;;;;4999720;28;19925;-67
2022/06/18 04:05:41;;;;;;;;;;;21.80;99.90;;;;;;5028173;28;19975;-67
2022/06/18 04:08:10;;;;;;;;;;;22.00;99.90;;;;;;5000937;28;19926;-67
2022/06/18 04:10:42;;;;;;;;;;;22.00;99.90;;;;;;5028964;28;19925;-66
2022/06/18 04:13:09;;;;;;;;;;;22.10;99.90;;;;;;5007743;28;19976;-66
2022/06/18 04:15:54;;;;;;;;;;;22.20;99.90;;;;;;4997827;28;20320;-67
2022/06/18 04:18:26;;;;;;;;;;;22.20;99.90;;;;;;5003741;28;19925;-66
2022/06/18 04:20:53;;;;;;;;;;;22.30;99.90;;;;;;5003401;28;20020;-67
2022/06/18 04:23:22;;;;;;;;;;;22.30;99.90;;;;;;5006157;28;19925;-66
2022/06/18 04:25:49;;;;;;;;;;;22.30;99.90;;;;;;4999462;28;19976;-66
2022/06/18 04:28:18;;;;;;;;;;;22.30;99.90;;;;;;4998446;28;20407;-66
2022/06/18 04:31:00;;;;;;;;;;;22.30;99.90;;;;;;5024811;28;19933;-63
2022/06/18 04:33:33;;;;;;;;;;;22.30;99.90;;;;;;4997323;28;19930;-69
2022/06/18 04:36:35;;;;;;;;;;;22.30;99.90;;;;;;5026757;28;19931;-70
2022/06/18 04:39:07;;;;;;;;;;;22.30;99.90;;;;;;4999207;28;20028;-66
2022/06/18 04:41:45;;;;;;;;;;;22.30;99.90;;;;;;4988391;28;19930;-66
2022/06/18 04:44:16;;;;;;;;;;;22.30;99.90;;;;;;4996388;28;19931;-66
2022/06/18 04:46:51;;;;;;;;;;;22.30;99.90;;;;;;4999727;28;19925;-66
2022/06/18 04:49:18;;;;;;;;;;;22.40;99.90;;;;;;4999855;28;19925;-66
2022/06/18 04:51:47;;;;;;;;;;;22.30;99.90;;;;;;4996230;28;19925;-65
2022/06/18 04:54:15;;;;;;;;;;;22.40;99.90;;;;;;4996405;28;19925;-65
2022/06/18 04:56:42;;;;;;;;;;;22.50;99.90;;;;;;5000410;28;19932;-64
2022/06/18 04:59:11;;;;;;;;;;;22.50;99.90;;;;;;4999184;28;19969;-66
2022/06/18 05:01:39;;;;;;;;;;;22.60;99.90;;;;;;5010124;28;19933;-65
2022/06/18 05:04:35;;;;;;;;;;;22.70;99.90;;;;;;5001165;28;19925;-66
2022/06/18 05:07:21;;;;;;;;;;;22.70;99.90;;;;;;5013316;28;20003;-66
2022/06/18 05:10:19;;;;;;;;;;;22.70;99.90;;;;;;4995498;28;19932;-66
2022/06/18 05:12:54;;;;;;;;;;;22.80;99.90;;;;;;4996943;28;20026;-66
2022/06/18 05:15:41;;;;;;;;;;;22.90;99.90;;;;;;5010868;28;19932;-66
2022/06/18 05:18:08;;;;;;;;;;;23.10;99.90;;;;;;4996039;28;20396;-67
2022/06/18 05:20:37;;;;;;;;;;;23.10;99.90;;;;;;4995585;28;19925;-66
2022/06/18 05:23:04;;;;;;;;;;;23.30;99.90;;;;;;4990279;28;19980;-66
2022/06/18 05:25:30;;;;;;;;;;;23.30;99.90;;;;;;4993672;28;19926;-67
2022/06/18 05:27:57;;;;;;;;;;;23.30;99.90;;;;;;4981850;28;19977;-66
2022/06/18 05:30:30;;;;;;;;;;;23.40;99.90;;;;;;4995843;28;19925;-66
2022/06/18 05:33:00;;;;;;;;;;;23.40;99.90;;;;;;5003972;28;19976;-65
2022/06/18 05:35:28;;;;;;;;;;;23.50;99.90;;;;;;5008319;28;19969;-65
2022/06/18 05:37:57;;;;;;;;;;;23.60;99.90;;;;;;5003261;28;19926;-66
2022/06/18 05:40:24;;;;;;;;;;;23.70;99.90;;;;;;5008942;28;19948;-66
2022/06/18 05:42:53;;;;;;;;;;;23.90;99.90;;;;;;5016990;28;19932;-69
2022/06/18 05:45:20;;;;;;;;;;;24.00;99.90;;;;;;5002563;28;19948;-66
2022/06/18 05:47:47;;;;;;;;;;;24.10;99.90;;;;;;5000459;28;20475;-66
2022/06/18 05:50:15;;;;;;;;;;;24.30;99.90;;;;;;4998571;28;19926;-66
2022/06/18 05:52:43;;;;;;;;;;;24.40;99.90;;;;;;5002661;28;20024;-68
2022/06/18 05:55:43;;;;;;;;;;;24.50;99.90;;;;;;5007882;28;19984;-67
2022/06/18 05:58:23;;;;;;;;;;;24.50;99.90;;;;;;4992271;28;19976;-66
2022/06/18 06:00:52;;;;;;;;;;;24.60;99.90;;;;;;5003566;28;19948;-66
2022/06/18 06:03:19;;;;;;;;;;;24.70;99.90;;;;;;5016071;28;20394;-67
2022/06/18 06:05:46;;;;;;;;;;;24.70;99.90;;;;;;5006223;28;19931;-66
2022/06/18 06:08:13;;;;;;;;;;;24.70;99.90;;;;;;4998161;28;19980;-66
2022/06/18 06:13:27;;;;;;;;;;;24.90;99.90;;;;;;4989768;28;19925;-66
2022/06/18 06:15:55;;;;;;;;;;;24.90;99.90;;;;;;5004733;28;19933;-66
2022/06/18 06:18:22;;;;;;;;;;;25.00;99.90;;;;;;4990629;28;19925;-65
2022/06/18 06:20:50;;;;;;;;;;;25.10;99.90;;;;;;4991725;28;19972;-66
2022/06/18 06:23:17;;;;;;;;;;;25.30;99.90;;;;;;4995280;28;19925;-67
2022/06/18 06:25:45;;;;;;;;;;;25.40;99.90;;;;;;4990234;28;19983;-66
2022/06/18 06:28:13;;;;;;;;;;;25.50;99.90;;;;;;4997287;28;19925;-72
2022/06/18 06:30:42;;;;;;;;;;;25.70;99.90;;;;;;5003187;28;19961;-67
2022/06/18 06:33:09;;;;;;;;;;;25.60;99.90;;;;;;4983740;28;19925;-66
2022/06/18 06:35:36;;;;;;;;;;;25.70;99.90;;;;;;4997157;28;19956;-65
2022/06/18 06:38:03;;;;;;;;;;;25.80;99.90;;;;;;5004424;28;20343;-66
2022/06/18 06:40:30;;;;;;;;;;;25.90;99.90;;;;;;5004038;28;19925;-66
2022/06/18 06:42:57;;;;;;;;;;;26.00;99.90;;;;;;4998365;28;20371;-65
2022/06/18 06:45:25;;;;;;;;;;;26.10;99.90;;;;;;4995711;28;20389;-67
2022/06/18 06:47:54;;;;;;;;;;;26.20;99.90;;;;;;4994628;28;19933;-66
2022/06/18 06:50:22;;;;;;;;;;;26.20;99.90;;;;;;4994936;28;19961;-66
2022/06/18 06:52:49;;;;;;;;;;;26.20;99.90;;;;;;4990031;28;20406;-67
2022/06/18 06:58:02;;;;;;;;;;;26.30;99.90;;;;;;4990220;28;19964;-67
2022/06/18 07:00:29;;;;;;;;;;;26.50;99.90;;;;;;4994125;28;20417;-67
2022/06/18 07:02:57;;;;;;;;;;;26.50;99.90;;;;;;4993858;28;19929;-67
2022/06/18 07:05:24;;;;;;;;;;;26.60;99.90;;;;;;4990787;28;20363;-66
2022/06/18 07:07:50;;;;;;;;;;;26.80;99.90;;;;;;4995116;28;19976;-67
2022/06/18 07:10:17;;;;;;;;;;;26.90;99.90;;;;;;4993637;28;19926;-66
2022/06/18 07:12:44;;;;;;;;;;;27.00;99.90;;;;;;4994213;28;19965;-68
2022/06/18 07:15:11;;;;;;;;;;;26.90;99.90;;;;;;4994495;28;19929;-67
2022/06/18 07:17:38;;;;;;;;;;;27.10;99.90;;;;;;4990596;28;19957;-65
2022/06/18 07:20:07;;;;;;;;;;;27.20;99.90;;;;;;4989665;28;20401;-66
2022/06/18 07:22:34;;;;;;;;;;;27.40;99.90;;;;;;4995520;28;20312;-67
2022/06/18 07:25:02;;;;;;;;;;;27.40;99.90;;;;;;5000447;28;19929;-74
2022/06/18 07:27:30;;;;;;;;;;;27.40;99.90;;;;;;4996835;28;19930;-66
2022/06/18 07:29:57;;;;;;;;;;;27.60;99.90;;;;;;4992243;28;19964;-67
2022/06/18 07:32:23;;;;;;;;;;;27.50;99.90;;;;;;4994141;28;19940;-68
2022/06/18 07:34:53;;;;;;;;;;;27.60;99.90;;;;;;4993920;28;19929;-66
2022/06/18 07:37:22;;;;;;;;;;;27.70;99.90;;;;;;5004552;28;20004;-65
2022/06/18 07:39:49;;;;;;;;;;;27.60;99.90;;;;;;5000308;28;19975;-65
2022/06/18 07:42:18;;;;;;;;;;;27.50;99.90;;;;;;5009875;28;19925;-65
2022/06/18 07:44:45;;;;;;;;;;;27.70;99.90;;;;;;5000326;28;19929;-65
2022/06/18 07:47:14;;;;;;;;;;;27.80;99.90;;;;;;5005949;28;19925;-69
2022/06/18 07:49:40;;;;;;;;;;;27.90;99.90;;;;;;5008636;28;19929;-66
2022/06/18 07:52:07;;;;;;;;;;;28.00;99.90;;;;;;5008814;28;19979;-65
2022/06/18 07:54:35;;;;;;;;;;;28.10;99.90;;;;;;5004727;28;19930;-66
2022/06/18 07:57:02;;;;;;;;;;;28.00;99.90;;;;;;4994724;28;20356;-66
2022/06/18 07:59:28;;;;;;;;;;;28.20;99.90;;;;;;5000258;28;19925;-70
2022/06/18 08:01:55;;;;;;;;;;;28.30;99.90;;;;;;4997170;28;20308;-67
2022/06/18 08:04:22;;;;;;;;;;;28.50;99.90;;;;;;5013970;28;20028;-66
2022/06/18 08:06:49;;;;;;;;;;;28.60;99.90;;;;;;4998404;28;19926;-68
2022/06/18 08:09:15;;;;;;;;;;;28.60;99.90;;;;;;4997423;28;20020;-65
2022/06/18 08:11:44;;;;;;;;;;;28.60;99.90;;;;;;4993722;28;20495;-65
2022/06/18 08:14:11;;;;;;;;;;;28.70;99.90;;;;;;4994812;28;19926;-66
2022/06/18 08:16:38;;;;;;;;;;;28.80;99.90;;;;;;4996038;28;19929;-67
2022/06/18 08:19:05;;;;;;;;;;;28.90;99.90;;;;;;4996288;28;19929;-68
2022/06/18 08:21:34;;;;;;;;;;;29.00;99.90;;;;;;5003831;28;19929;-65
2022/06/18 08:24:02;;;;;;;;;;;29.00;99.90;;;;;;4992770;28;19925;-65
2022/06/18 08:26:30;;;;;;;;;;;29.00;99.90;;;;;;5021546;28;19930;-67
2022/06/18 08:28:58;;;;;;;;;;;29.10;99.90;;;;;;4995795;28;19929;-67
2022/06/18 08:31:26;;;;;;;;;;;29.20;99.90;;;;;;5005413;28;20020;-68
2022/06/18 08:33:53;;;;;;;;;;;29.20;99.90;;;;;;5004978;28;19925;-67
2022/06/18 08:36:20;;;;;;;;;;;29.30;99.90;;;;;;4997021;28;19972;-65
2022/06/18 08:38:48;;;;;;;;;;;29.40;99.90;;;;;;5002848;28;19933;-68
2022/06/18 08:41:22;;;;;;;;;;;29.40;99.90;;;;;;4996298;28;19926;-66
2022/06/18 08:43:57;;;;;;;;;;;29.30;99.90;;;;;;4997437;28;19960;-65
2022/06/18 08:46:30;;;;;;;;;;;29.40;99.90;;;;;;4998420;28;20631;-66
2022/06/18 08:49:06;;;;;;;;;;;29.50;99.90;;;;;;4996271;28;19926;-65
2022/06/18 08:51:36;;;;;;;;;;;29.40;99.90;;;;;;5002127;28;19961;-65
2022/06/18 08:54:12;;;;;;;;;;;29.50;99.90;;;;;;5025185;28;19926;-64
2022/06/18 08:56:40;;;;;;;;;;;29.70;99.90;;;;;;4997188;28;19930;-65
2022/06/18 08:59:11;;;;;;;;;;;29.80;99.90;;;;;;5026481;28;19925;-65
2022/06/18 09:01:42;;;;;;;;;;;30.00;99.90;;;;;;4987248;28;19926;-65
2022/06/18 09:04:13;;;;;;;;;;;30.00;99.90;;;;;;4991109;28;19988;-65
2022/06/18 09:06:48;;;;;;;;;;;30.00;99.90;;;;;;5011894;28;19987;-65
2022/06/18 09:09:21;;;;;;;;;;;30.10;99.90;;;;;;5000263;28;20006;-65
2022/06/18 09:11:57;;;;;;;;;;;30.30;99.90;;;;;;4995657;28;19929;-67
2022/06/18 09:14:28;;;;;;;;;;;30.30;99.90;;;;;;4996330;28;19979;-65
2022/06/18 09:17:01;;;;;;;;;;;30.40;99.90;;;;;;4998987;28;19925;-67
2022/06/18 09:19:28;;;;;;;;;;;30.60;99.90;;;;;;4997799;28;19933;-66
2022/06/18 09:21:56;;;;;;;;;;;30.80;99.90;;;;;;5003442;28;19926;-70
2022/06/18 09:24:25;;;;;;;;;;;30.60;99.90;;;;;;5020502;28;20331;-66
2022/06/18 09:26:54;;;;;;;;;;;30.70;99.90;;;;;;4995450;28;19972;-66
2022/06/18 09:29:23;;;;;;;;;;;30.80;99.90;;;;;;4995311;28;19925;-67
2022/06/18 09:31:53;;;;;;;;;;;31.00;99.90;;;;;;4995361;28;19965;-66
2022/06/18 09:34:25;;;;;;;;;;;31.20;99.90;;;;;;5018882;28;19925;-66
2022/06/18 09:36:54;;;;;;;;;;;31.20;99.90;;;;;;4993504;28;20340;-66
2022/06/18 09:39:23;;;;;;;;;;;31.20;99.90;;;;;;4994282;28;19977;-65
2022/06/18 09:41:54;;;;;;;;;;;31.20;99.90;;;;;;5027627;23;19974;-65
2022/06/18 09:44:23;;;;;;;;;;;31.10;99.90;;;;;;5064174;28;19925;-65
2022/06/18 09:46:52;;;;;;;;;;;31.20;99.90;;;;;;5046067;28;19931;-65
2022/06/18 09:49:18;;;;;;;;;;;31.40;99.90;;;;;;5063158;28;19925;-65
2022/06/18 09:51:48;;;;;;;;;;;31.30;99.90;;;;;;5043535;28;20016;-65
2022/06/18 09:54:17;;;;;;;;;;;31.50;99.90;;;;;;5030280;28;19925;-65
2022/06/18 09:56:46;;;;;;;;;;;31.40;99.90;;;;;;5029629;28;19935;-65
2022/06/18 09:59:15;;;;;;;;;;;31.40;99.90;;;;;;5033702;28;19976;-65
2022/06/18 10:01:43;;;;;;;;;;;31.70;99.90;;;;;;5033310;28;20026;-65
2022/06/18 10:06:59;;;;;;;;;;;31.70;99.90;;;;;;5032426;28;20027;-65
2022/06/18 10:09:29;;;;;;;;;;;31.70;99.90;;;;;;5032205;28;19975;-66
2022/06/18 10:11:56;;;;;;;;;;;31.80;99.90;;;;;;5033637;28;19960;-65
2022/06/18 10:14:23;;;;;;;;;;;31.80;99.90;;;;;;5028193;28;19933;-65
2022/06/18 10:16:57;;;;;;;;;;;32.10;99.90;;;;;;5041393;28;20050;-65
2022/06/18 10:19:28;;;;;;;;;;;32.30;99.90;;;;;;5038452;28;20292;-65
2022/06/18 10:21:58;;;;;;;;;;;32.50;99.90;;;;;;5035673;28;19945;-66
2022/06/18 10:24:33;;;;;;;;;;;32.90;99.90;;;;;;5031113;28;19924;-65
2022/06/18 10:27:02;;;;;;;;;;;33.10;99.90;;;;;;5036858;28;20308;-65
2022/06/18 10:29:34;;;;;;;;;;;32.70;99.90;;;;;;5044192;28;19929;-66
2022/06/18 10:32:09;;;;;;;;;;;32.80;99.90;;;;;;5030320;28;19925;-65
2022/06/18 10:34:46;;;;;;;;;;;32.90;99.90;;;;;;5033304;28;19976;-65
2022/06/18 10:37:19;;;;;;;;;;;32.80;99.90;;;;;;5031095;28;19968;-65
2022/06/18 10:39:53;;;;;;;;;;;32.90;99.90;;;;;;5041134;28;19961;-65
2022/06/18 10:42:26;;;;;;;;;;;32.80;99.90;;;;;;5037923;28;20358;-65
2022/06/18 10:44:59;;;;;;;;;;;32.90;99.90;;;;;;5040728;28;19941;-66
2022/06/18 10:47:31;;;;;;;;;;;32.70;99.90;;;;;;5032141;28;20430;-66
2022/06/18 10:50:00;;;;;;;;;;;32.80;99.90;;;;;;5041546;28;20361;-65
2022/06/18 10:52:27;;;;;;;;;;;32.90;99.90;;;;;;5030692;28;19929;-64
2022/06/18 10:55:06;;;;;;;;;;;33.00;99.90;;;;;;5040284;28;19929;-65
2022/06/18 10:57:32;;;;;;;;;;;32.90;99.90;;;;;;5032218;28;19924;-65
2022/06/18 11:00:08;;;;;;;;;;;32.90;99.90;;;;;;5034136;28;19976;-65
2022/06/18 11:02:36;;;;;;;;;;;33.30;99.90;;;;;;5030370;28;19925;-65
2022/06/18 11:05:04;;;;;;;;;;;33.40;99.90;;;;;;5030022;28;19961;-65
2022/06/18 11:07:33;;;;;;;;;;;33.70;99.90;;;;;;5027911;28;19929;-65
2022/06/18 11:10:01;;;;;;;;;;;33.80;99.90;;;;;;5030701;28;19929;-65
2022/06/18 11:12:31;;;;;;;;;;;33.70;99.90;;;;;;5041509;28;19933;-64
2022/06/18 11:14:58;;;;;;;;;;;33.60;99.90;;;;;;5034085;28;20401;-65
2022/06/18 11:17:28;;;;;;;;;;;33.70;99.90;;;;;;5042570;28;19925;-65
2022/06/18 11:19:55;;;;;;;;;;;33.60;99.90;;;;;;5030892;28;19926;-65
2022/06/18 11:22:25;;;;;;;;;;;33.70;99.90;;;;;;5055799;28;19976;-66
2022/06/18 11:24:53;;;;;;;;;;;33.90;99.90;;;;;;5032051;28;19964;-64
2022/06/18 11:27:20;;;;;;;;;;;33.80;99.90;;;;;;5042226;28;20400;-65
2022/06/18 11:29:49;;;;;;;;;;;34.20;99.90;;;;;;5035151;28;20364;-65
2022/06/18 11:32:18;;;;;;;;;;;34.50;99.90;;;;;;5029032;28;19925;-66
2022/06/18 11:34:46;;;;;;;;;;;34.50;99.90;;;;;;5033414;28;19925;-65
2022/06/18 11:37:20;;;;;;;;;;;34.30;99.90;;;;;;5036651;28;19932;-65
2022/06/18 11:39:53;;;;;;;;;;;34.50;99.90;;;;;;5038130;28;19929;-65
2022/06/18 11:42:23;;;;;;;;;;;35.10;99.90;;;;;;5032477;28;19932;-67
2022/06/18 11:44:53;;;;;;;;;;;35.50;99.90;;;;;;5035166;28;20020;-65
2022/06/18 11:47:22;;;;;;;;;;;35.90;99.90;;;;;;5036281;28;20396;-66
2022/06/18 11:49:55;;;;;;;;;;;36.10;99.90;;;;;;5046335;28;20392;-65
2022/06/18 11:52:27;;;;;;;;;;;36.70;99.90;;;;;;5035007;28;19936;-66
2022/06/18 11:55:00;;;;;;;;;;;37.70;99.90;;;;;;5032790;28;19929;-66
2022/06/18 11:57:30;;;;;;;;;;;38.50;99.90;;;;;;5033463;28;19956;-65
2022/06/18 12:00:03;;;;;;;;;;;38.60;99.90;;;;;;5033124;28;20360;-65
2022/06/18 12:02:40;;;;;;;;;;;39.00;99.90;;;;;;5034262;28;19925;-66
2022/06/18 12:05:10;;;;;;;;;;;39.00;99.90;;;;;;5040365;28;19925;-66
2022/06/18 12:07:39;;;;;;;;;;;39.20;99.90;;;;;;5030125;28;19941;-66
2022/06/18 12:10:10;;;;;;;;;;;40.00;99.90;;;;;;5032853;28;19956;-67
2022/06/18 12:12:47;;;;;;;;;;;39.70;99.90;;;;;;5037420;28;19924;-66
2022/06/18 12:15:19;;;;;;;;;;;39.50;99.90;;;;;;5047910;28;20368;-66
2022/06/18 12:17:48;;;;;;;;;;;39.80;99.90;;;;;;5043829;28;20395;-67
2022/06/18 12:20:22;;;;;;;;;;;41.20;99.90;;;;;;5033249;28;19956;-67
2022/06/18 12:22:53;;;;;;;;;;;40.70;99.90;;;;;;5043506;28;20308;-67
2022/06/18 12:25:28;;;;;;;;;;;40.00;99.90;;;;;;5033029;28;19929;-66
2022/06/18 12:27:58;;;;;;;;;;;40.50;99.90;;;;;;5039252;28;20450;-66
2022/06/18 12:30:30;;;;;;;;;;;40.40;99.90;;;;;;5037281;28;19982;-67
2022/06/18 12:33:00;;;;;;;;;;;40.90;99.90;;;;;;5043427;28;19972;-66
2022/06/18 12:35:33;;;;;;;;;;;40.30;99.90;;;;;;5032866;28;19924;-67
2022/06/18 12:38:06;;;;;;;;;;;40.10;99.90;;;;;;5037373;28;20015;-64
2022/06/18 12:40:38;;;;;;;;;;;39.90;99.90;;;;;;5024240;28;19929;-65
2022/06/18 12:43:09;;;;;;;;;;;40.50;99.90;;;;;;5028944;28;19926;-66
2022/06/18 12:45:43;;;;;;;;;;;40.50;99.90;;;;;;5028162;28;19972;-67
2022/06/18 12:48:13;;;;;;;;;;;41.20;99.90;;;;;;5031087;28;19925;-67
2022/06/18 12:50:40;;;;;;;;;;;;;;;;;;5026383;28;19957;-66
2022/06/18 12:53:12;;;;;;;;;;;42.70;99.90;;;;;;5025443;28;19926;-66
2022/06/18 12:55:44;;;;;;;;;;;43.00;99.90;;;;;;5026869;28;20340;-65
2022/06/18 12:58:18;;;;;;;;;;;43.10;99.90;;;;;;5025448;28;19987;-65
2022/06/18 13:00:48;;;;;;;;;;;42.10;99.00;;;;;;5026410;28;20397;-66
2022/06/18 13:03:23;;;;;;;;;;;41.60;99.30;;;;;;5029102;28;20410;-66
2022/06/18 13:05:51;;;;;;;;;;;41.60;99.70;;;;;;5025086;28;20393;-66
2022/06/18 13:08:28;;;;;;;;;;;41.60;99.70;;;;;;5028724;28;19928;-66
2022/06/18 13:10:58;;;;;;;;;;;42.30;99.50;;;;;;5028312;28;20336;-66
2022/06/18 13:13:33;;;;;;;;;;;42.80;98.80;;;;;;5027657;28;19975;-65
2022/06/18 13:16:04;;;;;;;;;;;43.00;99.20;;;;;;5026509;28;19929;-66
2022/06/18 13:18:33;;;;;;;;;;;42.90;98.70;;;;;;5029349;28;19956;-66
2022/06/18 13:21:01;;;;;;;;;;;43.00;99.10;;;;;;5026151;28;19925;-67
2022/06/18 13:29:02;;;;;;;;;;;42.60;98.80;;;;;;5026002;28;19925;-65
2022/06/18 13:31:38;;;;;;;;;;;42.40;98.60;;;;;;5035102;28;20324;-66
2022/06/18 13:34:10;;;;;;;;;;;42.70;98.80;;;;;;5019813;28;21648;-65
2022/06/18 13:36:41;;;;;;;;;;;42.80;98.60;;;;;;5030530;28;20297;-66
2022/06/18 13:39:14;;;;;;;;;;;43.20;97.90;;;;;;5025691;28;20049;-67
2022/06/18 13:41:45;;;;;;;;;;;42.60;97.10;;;;;;5020742;28;20032;-66
2022/06/18 13:44:32;;;;;;;;;;;40.70;97.50;;;;;;5024974;28;20070;-66
2022/06/18 13:47:01;;;;;;;;;;;41.20;98.00;;;;;;5020554;28;20007;-65
2022/06/18 13:49:34;;;;;;;;;;;41.60;97.80;;;;;;5018319;28;20076;-66
2022/06/18 13:52:02;;;;;;;;;;;41.70;98.00;;;;;;5026056;28;19926;-67
2022/06/18 13:54:39;;;;;;;;;;;41.60;97.90;;;;;;5011971;28;19930;-66
2022/06/18 13:57:07;;;;;;;;;;;41.40;97.70;;;;;;5038318;28;19961;-65
2022/06/18 13:59:34;;;;;;;;;;;41.00;98.10;;;;;;5021177;28;19932;-65
2022/06/18 14:02:04;;;;;;;;;;;41.60;97.90;;;;;;5018641;28;19925;-65
2022/06/18 14:04:33;;;;;;;;;;;41.20;97.90;;;;;;5022863;28;19931;-65
2022/06/18 14:07:01;;;;;;;;;;;40.90;97.80;;;;;;5022338;28;19932;-66
2022/06/18 14:09:29;;;;;;;;;;;40.10;97.60;;;;;;5024968;28;20023;-69
2022/06/18 14:11:58;;;;;;;;;;;39.80;97.90;;;;;;5018051;28;19964;-65
2022/06/18 14:14:32;;;;;;;;;;;39.50;98.30;;;;;;5021886;28;19936;-65
2022/06/18 14:17:02;;;;;;;;;;;39.20;98.00;;;;;;5024049;28;20023;-64
2022/06/18 14:19:31;;;;;;;;;;;39.20;97.70;;;;;;5024930;28;19940;-64
2022/06/18 14:22:02;;;;;;;;;;;40.10;97.80;;;;;;5020879;28;20460;-66
2022/06/18 14:24:37;;;;;;;;;;;39.90;97.50;;;;;;5040712;28;19925;-64
2022/06/18 14:27:05;;;;;;;;;;;40.40;97.20;;;;;;5018099;28;20032;-65
2022/06/18 14:29:38;;;;;;;;;;;40.40;97.20;;;;;;5026828;28;19925;-64
2022/06/18 14:32:10;;;;;;;;;;;41.10;97.10;;;;;;5019896;28;19925;-66
2022/06/18 14:34:45;;;;;;;;;;;42.40;96.90;;;;;;5025451;28;19931;-66
2022/06/18 14:37:12;;;;;;;;;;;43.50;96.90;;;;;;5042326;28;19926;-67
2022/06/18 14:39:43;;;;;;;;;;;42.60;96.30;;;;;;5030329;28;19979;-66
2022/06/18 14:42:14;;;;;;;;;;;42.50;96.40;;;;;;5031123;28;19925;-69
2022/06/18 14:44:53;;;;;;;;;;;42.30;96.30;;;;;;5030081;28;19925;-66
2022/06/18 14:47:32;;;;;;;;;;;42.30;96.20;;;;;;5031686;28;20012;-66
2022/06/18 14:50:09;;;;;;;;;;;42.50;96.00;;;;;;5033989;28;20016;-70
2022/06/18 14:52:44;;;;;;;;;;;42.60;96.20;;;;;;5034871;28;20015;-65
2022/06/18 14:55:31;;;;;;;;;;;41.90;96.00;;;;;;5034168;28;20041;-70
2022/06/18 14:58:11;;;;;;;;;;;41.70;96.00;;;;;;5035330;28;19925;-68